createdAt,value
2018-12-18T00:00:45.072Z,3.33
2018-12-18T00:01:45.057Z,3.23
2018-12-18T00:02:45.045Z,3.24
2018-12-18T00:03:45.082Z,3.27
2018-12-18T00:04:45.034Z,3.27
2018-12-18T00:05:45.016Z,3.23
2018-12-18T00:06:45.001Z,3.15
2018-12-18T00:07:44.990Z,3.24
2018-12-18T00:08:44.978Z,3.28
2018-12-18T00:09:44.981Z,3.30
2018-12-18T00:10:44.959Z,3.43
2018-12-18T00:11:44.947Z,3.36
2018-12-18T00:12:44.955Z,3.49
2018-12-18T00:13:44.923Z,3.47
2018-12-18T00:14:44.925Z,3.42
2018-12-18T00:15:44.900Z,3.42
2018-12-18T00:16:44.889Z,3.34
2018-12-18T00:17:44.877Z,3.30
2018-12-18T00:18:44.866Z,3.33
2018-12-18T00:19:44.867Z,3.42
2018-12-18T00:20:44.842Z,3.47
2018-12-18T00:21:44.834Z,3.53
2018-12-18T00:22:44.821Z,3.42
2018-12-18T00:23:44.810Z,3.46
2018-12-18T00:24:44.810Z,3.58
2018-12-18T00:25:44.791Z,3.50
2018-12-18T00:26:44.777Z,3.49
2018-12-18T00:27:44.772Z,3.50
2018-12-18T00:28:44.756Z,3.43
2018-12-18T00:29:44.758Z,3.34
2018-12-18T00:30:44.731Z,3.47
2018-12-18T00:31:44.722Z,3.43
2018-12-18T00:32:44.713Z,3.47
2018-12-18T00:33:46.199Z,3.42
2018-12-18T00:34:44.698Z,3.34
2018-12-18T00:35:44.683Z,3.42
2018-12-18T00:36:44.664Z,3.44
2018-12-18T00:37:44.653Z,3.46
2018-12-18T00:38:44.798Z,3.43
2018-12-18T00:39:44.647Z,3.36
2018-12-18T00:40:44.619Z,3.24
2018-12-18T00:41:44.610Z,3.25
2018-12-18T00:42:44.598Z,3.34
2018-12-18T00:43:44.586Z,3.44
2018-12-18T00:44:44.615Z,3.52
2018-12-18T00:45:44.566Z,3.47
2018-12-18T00:46:44.552Z,3.49
2018-12-18T00:47:44.540Z,3.54
2018-12-18T00:48:44.534Z,3.53
2018-12-18T00:49:44.519Z,3.61
2018-12-18T00:50:44.521Z,3.61
2018-12-18T00:51:44.497Z,3.52
2018-12-18T00:52:44.485Z,3.62
2018-12-18T00:53:44.476Z,3.52
2018-12-18T00:54:44.462Z,3.58
2018-12-18T00:55:44.463Z,3.62
2018-12-18T00:56:44.440Z,3.62
2018-12-18T00:57:44.428Z,3.64
2018-12-18T00:58:44.416Z,3.61
2018-12-18T00:59:44.406Z,3.54
2018-12-18T01:00:44.406Z,3.62
2018-12-18T01:01:44.388Z,3.58
2018-12-18T01:02:44.372Z,3.39
2018-12-18T01:03:44.364Z,3.50
2018-12-18T01:04:44.354Z,3.44
2018-12-18T01:05:44.354Z,3.54
2018-12-18T01:06:44.332Z,3.58
2018-12-18T01:07:44.316Z,3.68
2018-12-18T01:08:44.310Z,3.62
2018-12-18T01:09:44.294Z,3.61
2018-12-18T01:10:44.304Z,3.70
2018-12-18T01:11:44.273Z,3.68
2018-12-18T01:12:44.267Z,3.76
2018-12-18T01:13:44.408Z,3.80
2018-12-18T01:14:44.246Z,3.79
2018-12-18T01:15:44.239Z,3.78
2018-12-18T01:16:44.219Z,3.85
2018-12-18T01:17:44.285Z,3.88
2018-12-18T01:18:44.194Z,3.94
2018-12-18T01:19:44.182Z,3.85
2018-12-18T01:20:44.181Z,3.86
2018-12-18T01:21:44.164Z,3.79
2018-12-18T01:22:44.150Z,3.78
2018-12-18T01:23:44.143Z,3.79
2018-12-18T01:24:44.132Z,3.82
2018-12-18T01:25:44.152Z,3.82
2018-12-18T01:26:44.106Z,3.80
2018-12-18T01:27:44.098Z,3.79
2018-12-18T01:28:44.080Z,3.85
2018-12-18T01:29:44.073Z,3.85
2018-12-18T01:30:44.071Z,3.85
2018-12-18T01:31:44.047Z,3.96
2018-12-18T01:32:44.037Z,3.98
2018-12-18T01:33:44.029Z,3.85
2018-12-18T01:34:44.017Z,3.90
2018-12-18T01:35:44.015Z,3.86
2018-12-18T01:36:43.991Z,3.79
2018-12-18T01:37:43.980Z,3.79
2018-12-18T01:38:43.972Z,3.79
2018-12-18T01:39:43.959Z,3.78
2018-12-18T01:40:43.967Z,3.75
2018-12-18T01:41:43.989Z,3.71
2018-12-18T01:42:43.928Z,3.75
2018-12-18T01:43:43.917Z,3.65
2018-12-18T01:44:43.903Z,3.68
2018-12-18T01:45:43.910Z,3.76
2018-12-18T01:46:43.878Z,3.68
2018-12-18T01:47:43.883Z,3.64
2018-12-18T01:48:43.857Z,3.67
2018-12-18T01:49:43.850Z,3.67
2018-12-18T01:50:43.836Z,3.72
2018-12-18T01:51:43.834Z,3.71
2018-12-18T01:52:43.811Z,3.70
2018-12-18T01:53:43.807Z,3.68
2018-12-18T01:54:43.799Z,3.78
2018-12-18T01:55:43.807Z,3.85
2018-12-18T01:56:43.778Z,3.79
2018-12-18T01:57:43.777Z,3.80
2018-12-18T01:58:43.776Z,3.78
2018-12-18T01:59:43.735Z,3.80
2018-12-18T02:00:43.722Z,3.78
2018-12-18T02:01:43.726Z,3.82
2018-12-18T02:02:43.709Z,3.85
2018-12-18T02:03:43.688Z,3.89
2018-12-18T02:04:43.678Z,3.89
2018-12-18T02:05:43.686Z,3.96
2018-12-18T02:06:43.673Z,3.97
2018-12-18T02:07:43.647Z,4.08
2018-12-18T02:08:43.633Z,4.00
2018-12-18T02:09:43.622Z,4.04
2018-12-18T02:10:43.610Z,4.03
2018-12-18T02:11:43.610Z,3.98
2018-12-18T02:12:43.587Z,4.00
2018-12-18T02:13:43.577Z,4.00
2018-12-18T02:14:43.566Z,4.01
2018-12-18T02:15:43.554Z,4.03
2018-12-18T02:16:43.556Z,4.01
2018-12-18T02:17:43.532Z,4.00
2018-12-18T02:18:43.524Z,3.92
2018-12-18T02:19:43.508Z,4.01
2018-12-18T02:20:43.530Z,4.01
2018-12-18T02:21:43.503Z,4.10
2018-12-18T02:22:43.476Z,4.08
2018-12-18T02:23:43.465Z,4.16
2018-12-18T02:24:43.455Z,4.19
2018-12-18T02:25:43.446Z,4.21
2018-12-18T02:26:43.447Z,4.19
2018-12-18T02:27:43.421Z,4.18
2018-12-18T02:28:43.412Z,4.24
2018-12-18T02:29:43.397Z,4.26
2018-12-18T02:30:43.387Z,4.18
2018-12-18T02:31:43.387Z,4.24
2018-12-18T02:32:43.365Z,4.29
2018-12-18T02:33:43.357Z,4.21
2018-12-18T02:34:43.340Z,4.25
2018-12-18T02:35:43.333Z,4.22
2018-12-18T02:36:43.330Z,4.21
2018-12-18T02:37:43.306Z,4.24
2018-12-18T02:38:43.295Z,4.28
2018-12-18T02:39:43.284Z,4.24
2018-12-18T02:40:43.273Z,4.22
2018-12-18T02:41:43.275Z,4.22
2018-12-18T02:42:43.255Z,4.24
2018-12-18T02:43:43.241Z,4.19
2018-12-18T02:44:43.228Z,4.06
2018-12-18T02:45:43.220Z,4.12
2018-12-18T02:46:43.219Z,4.06
2018-12-18T02:47:43.196Z,3.98
2018-12-18T02:48:43.186Z,4.01
2018-12-18T02:49:43.173Z,4.01
2018-12-18T02:50:43.163Z,3.94
2018-12-18T02:51:43.162Z,3.98
2018-12-18T02:52:43.141Z,3.88
2018-12-18T02:53:43.133Z,3.88
2018-12-18T02:54:43.115Z,3.89
2018-12-18T02:55:43.103Z,3.92
2018-12-18T02:56:43.104Z,3.88
2018-12-18T02:57:43.085Z,3.98
2018-12-18T02:58:43.069Z,3.94
2018-12-18T02:59:43.065Z,3.94
2018-12-18T03:00:43.055Z,4.04
2018-12-18T03:01:43.060Z,4.01
2018-12-18T03:02:43.033Z,4.07
2018-12-18T03:03:43.021Z,4.08
2018-12-18T03:04:43.003Z,4.08
2018-12-18T03:05:42.994Z,4.03
2018-12-18T03:06:42.981Z,4.16
2018-12-18T03:07:42.993Z,4.16
2018-12-18T03:08:42.965Z,4.24
2018-12-18T03:09:42.946Z,4.24
2018-12-18T03:10:42.938Z,4.26
2018-12-18T03:11:42.927Z,4.24
2018-12-18T03:12:42.926Z,4.28
2018-12-18T03:13:42.903Z,4.21
2018-12-18T03:14:42.894Z,4.25
2018-12-18T03:15:42.885Z,4.22
2018-12-18T03:16:42.870Z,4.19
2018-12-18T03:17:42.935Z,4.26
2018-12-18T03:18:42.843Z,4.26
2018-12-18T03:19:42.835Z,4.25
2018-12-18T03:20:42.828Z,4.24
2018-12-18T03:21:42.814Z,4.32
2018-12-18T03:22:42.815Z,4.22
2018-12-18T03:23:42.792Z,4.36
2018-12-18T03:24:42.777Z,4.33
2018-12-18T03:25:42.766Z,4.37
2018-12-18T03:26:42.757Z,4.37
2018-12-18T03:27:42.758Z,4.34
2018-12-18T03:28:42.737Z,4.39
2018-12-18T03:29:42.726Z,4.34
2018-12-18T03:30:42.711Z,4.34
2018-12-18T03:31:42.703Z,4.33
2018-12-18T03:32:42.699Z,4.34
2018-12-18T03:33:42.679Z,4.39
2018-12-18T03:34:42.665Z,4.37
2018-12-18T03:35:42.655Z,4.34
2018-12-18T03:36:42.643Z,4.34
2018-12-18T03:37:42.643Z,4.43
2018-12-18T03:38:42.621Z,4.42
2018-12-18T03:39:42.613Z,4.42
2018-12-18T03:40:42.598Z,4.42
2018-12-18T03:41:42.591Z,4.34
2018-12-18T03:42:42.589Z,4.54
2018-12-18T03:43:42.571Z,4.46
2018-12-18T03:44:42.561Z,4.44
2018-12-18T03:45:42.547Z,4.42
2018-12-18T03:46:42.533Z,4.44
2018-12-18T03:47:42.530Z,4.46
2018-12-18T03:48:42.508Z,4.39
2018-12-18T03:49:42.501Z,4.58
2018-12-18T03:50:42.496Z,4.39
2018-12-18T03:51:42.474Z,4.43
2018-12-18T03:52:42.482Z,4.39
2018-12-18T03:53:42.451Z,4.47
2018-12-18T03:54:42.445Z,4.46
2018-12-18T03:55:42.433Z,4.47
2018-12-18T03:56:42.418Z,4.61
2018-12-18T03:57:42.428Z,4.44
2018-12-18T03:58:42.394Z,4.46
2018-12-18T03:59:42.385Z,4.39
2018-12-18T04:00:42.373Z,4.40
2018-12-18T04:01:42.360Z,4.43
2018-12-18T04:02:42.419Z,4.39
2018-12-18T04:03:42.338Z,4.44
2018-12-18T04:04:42.329Z,4.46
2018-12-18T04:05:42.316Z,4.50
2018-12-18T04:06:42.327Z,4.46
2018-12-18T04:07:42.313Z,4.50
2018-12-18T04:08:42.285Z,4.51
2018-12-18T04:09:42.274Z,4.50
2018-12-18T04:10:42.262Z,4.50
2018-12-18T04:11:42.249Z,4.50
2018-12-18T04:12:42.254Z,4.47
2018-12-18T04:13:42.228Z,4.54
2018-12-18T04:14:42.216Z,4.64
2018-12-18T04:15:42.205Z,4.57
2018-12-18T04:16:42.196Z,4.58
2018-12-18T04:17:42.194Z,4.58
2018-12-18T04:18:42.190Z,4.62
2018-12-18T04:19:42.159Z,4.59
2018-12-18T04:20:42.151Z,4.57
2018-12-18T04:21:42.136Z,4.59
2018-12-18T04:22:42.141Z,4.58
2018-12-18T04:23:42.113Z,4.61
2018-12-18T04:24:42.104Z,4.51
2018-12-18T04:25:42.091Z,4.52
2018-12-18T04:26:42.080Z,4.58
2018-12-18T04:27:42.109Z,4.55
2018-12-18T04:28:42.058Z,4.58
2018-12-18T04:29:42.052Z,4.62
2018-12-18T04:30:42.035Z,4.65
2018-12-18T04:31:42.024Z,4.58
2018-12-18T04:32:42.014Z,4.58
2018-12-18T04:33:42.015Z,4.58
2018-12-18T04:34:43.076Z,4.58
2018-12-18T04:35:41.981Z,4.61
2018-12-18T04:36:41.969Z,4.57
2018-12-18T04:37:41.957Z,4.59
2018-12-18T04:38:41.957Z,4.57
2018-12-18T04:39:41.961Z,4.59
2018-12-18T04:40:41.928Z,4.58
2018-12-18T04:41:41.913Z,4.59
2018-12-18T04:42:41.904Z,4.62
2018-12-18T04:43:41.903Z,4.57
2018-12-18T04:44:41.886Z,4.57
2018-12-18T04:45:41.868Z,4.57
2018-12-18T04:46:41.875Z,4.58
2018-12-18T04:47:41.846Z,4.58
2018-12-18T04:48:41.857Z,4.64
2018-12-18T04:49:41.825Z,4.58
2018-12-18T04:50:41.811Z,4.55
2018-12-18T04:51:41.807Z,4.47
2018-12-18T04:52:41.793Z,4.51
2018-12-18T04:53:41.793Z,4.40
2018-12-18T04:54:41.768Z,4.47
2018-12-18T04:55:41.756Z,4.47
2018-12-18T04:56:41.749Z,4.51
2018-12-18T04:57:42.529Z,4.54
2018-12-18T04:58:41.733Z,4.54
2018-12-18T04:59:41.712Z,4.67
2018-12-18T05:00:41.705Z,4.62
2018-12-18T05:01:41.689Z,4.64
2018-12-18T05:02:42.532Z,4.62
2018-12-18T05:03:41.713Z,4.67
2018-12-18T05:04:41.656Z,4.64
2018-12-18T05:05:41.643Z,4.64
2018-12-18T05:06:41.631Z,4.62
2018-12-18T05:07:41.622Z,4.62
2018-12-18T05:08:41.612Z,4.69
2018-12-18T05:09:41.612Z,4.70
2018-12-18T05:10:41.588Z,4.73
2018-12-18T05:11:41.575Z,4.69
2018-12-18T05:12:41.564Z,4.69
2018-12-18T05:13:41.554Z,4.72
2018-12-18T05:14:41.556Z,4.67
2018-12-18T05:15:41.534Z,4.76
2018-12-18T05:16:41.520Z,4.70
2018-12-18T05:17:41.510Z,4.76
2018-12-18T05:18:41.498Z,4.62
2018-12-18T05:19:41.498Z,4.67
2018-12-18T05:20:41.476Z,4.67
2018-12-18T05:21:41.463Z,4.70
2018-12-18T05:22:41.454Z,4.64
2018-12-18T05:23:41.442Z,4.72
2018-12-18T05:24:41.442Z,4.72
2018-12-18T05:25:41.421Z,4.70
2018-12-18T05:26:41.407Z,4.79
2018-12-18T05:27:41.396Z,4.77
2018-12-18T05:28:41.385Z,4.69
2018-12-18T05:29:41.387Z,4.77
2018-12-18T05:30:41.365Z,4.76
2018-12-18T05:31:41.354Z,4.69
2018-12-18T05:32:41.341Z,4.62
2018-12-18T05:33:41.330Z,4.75
2018-12-18T05:34:41.332Z,4.62
2018-12-18T05:35:41.309Z,4.70
2018-12-18T05:36:41.300Z,4.65
2018-12-18T05:37:41.285Z,4.69
2018-12-18T05:38:41.272Z,4.70
2018-12-18T05:39:41.292Z,4.69
2018-12-18T05:40:41.249Z,4.79
2018-12-18T05:41:41.239Z,4.72
2018-12-18T05:42:41.233Z,4.64
2018-12-18T05:43:41.217Z,4.61
2018-12-18T05:44:41.207Z,4.72
2018-12-18T05:45:41.208Z,4.77
2018-12-18T05:46:41.182Z,4.80
2018-12-18T05:47:41.176Z,4.83
2018-12-18T05:48:41.165Z,4.73
2018-12-18T05:49:41.150Z,4.77
2018-12-18T05:50:41.153Z,4.86
2018-12-18T05:51:41.127Z,4.83
2018-12-18T05:52:41.117Z,4.83
2018-12-18T05:53:41.107Z,4.95
2018-12-18T05:54:41.094Z,4.91
2018-12-18T05:55:41.099Z,4.91
2018-12-18T05:56:41.072Z,4.99
2018-12-18T05:57:41.061Z,5.05
2018-12-18T05:58:41.050Z,4.98
2018-12-18T05:59:41.043Z,5.07
2018-12-18T06:00:41.040Z,5.02
2018-12-18T06:01:41.015Z,5.02
2018-12-18T06:02:41.003Z,5.09
2018-12-18T06:03:40.993Z,5.04
2018-12-18T06:04:40.987Z,5.05
2018-12-18T06:05:40.984Z,5.07
2018-12-18T06:06:40.961Z,5.02
2018-12-18T06:07:40.949Z,5.07
2018-12-18T06:08:40.936Z,5.09
2018-12-18T06:09:40.926Z,4.95
2018-12-18T06:10:40.925Z,4.99
2018-12-18T06:11:40.902Z,5.05
2018-12-18T06:12:40.893Z,5.01
2018-12-18T06:13:40.882Z,4.98
2018-12-18T06:14:40.874Z,5.01
2018-12-18T06:15:40.874Z,5.01
2018-12-18T06:16:40.849Z,5.04
2018-12-18T06:17:40.836Z,4.96
2018-12-18T06:18:40.826Z,4.95
2018-12-18T06:19:40.815Z,5.01
2018-12-18T06:20:40.816Z,4.96
2018-12-18T06:21:40.791Z,4.99
2018-12-18T06:22:40.783Z,4.95
2018-12-18T06:23:40.770Z,4.95
2018-12-18T06:24:40.765Z,4.89
2018-12-18T06:25:40.765Z,4.88
2018-12-18T06:26:40.735Z,4.91
2018-12-18T06:27:40.729Z,4.91
2018-12-18T06:28:40.713Z,4.88
2018-12-18T06:29:40.702Z,4.95
2018-12-18T06:30:40.703Z,4.91
2018-12-18T06:31:40.681Z,5.05
2018-12-18T06:32:40.669Z,4.95
2018-12-18T06:33:40.660Z,4.99
2018-12-18T06:34:40.656Z,4.98
2018-12-18T06:35:40.650Z,5.01
2018-12-18T06:36:40.627Z,4.96
2018-12-18T06:37:40.616Z,4.89
2018-12-18T06:38:40.604Z,4.98
2018-12-18T06:39:40.600Z,4.92
2018-12-18T06:40:40.594Z,4.96
2018-12-18T06:41:40.573Z,4.94
2018-12-18T06:42:40.557Z,4.98
2018-12-18T06:43:40.547Z,5.04
2018-12-18T06:44:40.541Z,5.01
2018-12-18T06:45:40.538Z,4.98
2018-12-18T06:46:40.514Z,5.01
2018-12-18T06:47:40.504Z,5.12
2018-12-18T06:48:40.494Z,5.04
2018-12-18T06:49:40.480Z,5.07
2018-12-18T06:50:40.479Z,5.10
2018-12-18T06:51:40.456Z,4.98
2018-12-18T06:52:40.450Z,5.04
2018-12-18T06:53:40.434Z,5.10
2018-12-18T06:54:40.442Z,5.12
2018-12-18T06:55:40.430Z,5.04
2018-12-18T06:56:40.403Z,5.04
2018-12-18T06:57:40.390Z,5.14
2018-12-18T06:58:40.404Z,5.10
2018-12-18T06:59:40.385Z,5.12
2018-12-18T07:00:40.368Z,5.16
2018-12-18T07:01:40.350Z,5.19
2018-12-18T07:02:40.333Z,5.12
2018-12-18T07:03:40.323Z,5.16
2018-12-18T07:04:40.310Z,5.17
2018-12-18T07:05:40.312Z,5.14
2018-12-18T07:06:40.289Z,5.14
2018-12-18T07:07:40.278Z,5.22
2018-12-18T07:08:40.272Z,5.14
2018-12-18T07:09:40.314Z,5.19
2018-12-18T07:10:40.482Z,5.14
2018-12-18T07:11:40.234Z,5.16
2018-12-18T07:12:40.227Z,5.12
2018-12-18T07:13:40.221Z,5.17
2018-12-18T07:14:40.203Z,5.20
2018-12-18T07:15:40.189Z,5.16
2018-12-18T07:16:40.189Z,5.10
2018-12-18T07:17:40.164Z,5.12
2018-12-18T07:18:40.157Z,5.16
2018-12-18T07:19:40.142Z,5.12
2018-12-18T07:20:40.132Z,5.19
2018-12-18T07:21:40.133Z,5.20
2018-12-18T07:22:40.110Z,5.17
2018-12-18T07:23:40.096Z,5.16
2018-12-18T07:24:40.090Z,5.13
2018-12-18T07:25:40.076Z,5.09
2018-12-18T07:26:40.080Z,5.12
2018-12-18T07:27:40.051Z,5.16
2018-12-18T07:28:40.048Z,5.16
2018-12-18T07:29:40.034Z,5.12
2018-12-18T07:30:40.019Z,5.13
2018-12-18T07:31:40.020Z,5.16
2018-12-18T07:32:39.998Z,5.14
2018-12-18T07:33:39.987Z,5.16
2018-12-18T07:34:39.975Z,5.17
2018-12-18T07:35:39.968Z,5.20
2018-12-18T07:36:39.965Z,5.16
2018-12-18T07:37:39.944Z,5.23
2018-12-18T07:38:39.932Z,5.20
2018-12-18T07:39:39.918Z,5.22
2018-12-18T07:40:39.907Z,5.20
2018-12-18T07:41:39.912Z,5.30
2018-12-18T07:42:39.887Z,5.20
2018-12-18T07:43:39.873Z,5.25
2018-12-18T07:44:39.863Z,5.27
2018-12-18T07:45:39.856Z,5.25
2018-12-18T07:46:39.851Z,5.28
2018-12-18T07:47:39.830Z,5.27
2018-12-18T07:48:39.819Z,5.30
2018-12-18T07:49:39.808Z,5.20
2018-12-18T07:50:39.796Z,5.27
2018-12-18T07:51:39.803Z,5.25
2018-12-18T07:52:39.784Z,5.22
2018-12-18T07:53:39.762Z,5.27
2018-12-18T07:54:39.749Z,5.28
2018-12-18T07:55:39.741Z,5.25
2018-12-18T07:56:39.747Z,5.17
2018-12-18T07:57:39.716Z,5.27
2018-12-18T07:58:39.708Z,5.25
2018-12-18T07:59:39.694Z,5.17
2018-12-18T08:00:39.686Z,5.20
2018-12-18T08:01:39.691Z,5.25
2018-12-18T08:02:39.661Z,5.31
2018-12-18T08:03:39.652Z,5.23
2018-12-18T08:04:39.644Z,5.19
2018-12-18T08:05:39.628Z,5.22
2018-12-18T08:06:39.701Z,5.17
2018-12-18T08:07:39.613Z,5.14
2018-12-18T08:08:39.602Z,5.23
2018-12-18T08:09:40.704Z,5.27
2018-12-18T08:10:39.571Z,5.16
2018-12-18T08:11:39.836Z,5.20
2018-12-18T08:12:39.557Z,5.25
2018-12-18T08:13:39.541Z,5.20
2018-12-18T08:14:39.537Z,5.23
2018-12-18T08:15:39.518Z,5.17
2018-12-18T08:16:39.580Z,5.14
2018-12-18T08:17:39.494Z,5.25
2018-12-18T08:18:39.483Z,5.27
2018-12-18T08:19:39.474Z,5.19
2018-12-18T08:20:39.465Z,5.27
2018-12-18T08:21:39.465Z,5.32
2018-12-18T08:22:39.452Z,5.23
2018-12-18T08:23:39.429Z,5.31
2018-12-18T08:24:39.418Z,5.25
2018-12-18T08:25:39.406Z,5.28
2018-12-18T08:26:39.405Z,5.41
2018-12-18T08:27:39.382Z,5.30
2018-12-18T08:28:39.376Z,5.37
2018-12-18T08:29:39.362Z,5.30
2018-12-18T08:30:39.348Z,5.27
2018-12-18T08:31:39.357Z,5.35
2018-12-18T08:32:39.342Z,5.28
2018-12-18T08:33:39.318Z,5.32
2018-12-18T08:34:39.304Z,5.25
2018-12-18T08:35:39.447Z,5.31
2018-12-18T08:36:39.293Z,5.34
2018-12-18T08:37:39.389Z,5.38
2018-12-18T08:38:39.262Z,5.37
2018-12-18T08:39:39.247Z,5.37
2018-12-18T08:40:39.238Z,5.40
2018-12-18T08:41:39.237Z,5.35
2018-12-18T08:42:39.216Z,5.41
2018-12-18T08:43:39.204Z,5.35
2018-12-18T08:44:39.194Z,5.46
2018-12-18T08:45:39.180Z,5.37
2018-12-18T08:46:39.208Z,5.43
2018-12-18T08:47:39.158Z,5.35
2018-12-18T08:48:39.149Z,5.40
2018-12-18T08:49:39.140Z,5.35
2018-12-18T08:50:39.125Z,5.40
2018-12-18T08:51:39.118Z,5.35
2018-12-18T08:52:39.118Z,5.32
2018-12-18T08:53:39.091Z,5.32
2018-12-18T08:54:39.083Z,5.34
2018-12-18T08:55:39.074Z,5.38
2018-12-18T08:56:39.058Z,5.37
2018-12-18T08:57:39.059Z,5.40
2018-12-18T08:58:39.037Z,5.45
2018-12-18T08:59:39.027Z,5.40
2018-12-18T09:00:39.022Z,5.43
2018-12-18T09:01:39.002Z,5.37
2018-12-18T09:02:39.001Z,5.40
2018-12-18T09:03:38.979Z,5.41
2018-12-18T09:04:38.970Z,5.35
2018-12-18T09:05:43.098Z,5.35
2018-12-18T09:06:39.012Z,5.40
2018-12-18T09:07:38.949Z,5.40
2018-12-18T09:08:38.925Z,5.43
2018-12-18T09:09:38.914Z,5.41
2018-12-18T09:10:39.935Z,5.48
2018-12-18T09:11:38.892Z,5.43
2018-12-18T09:12:38.895Z,5.43
2018-12-18T09:13:38.879Z,5.48
2018-12-18T09:14:38.858Z,5.45
2018-12-18T09:15:38.852Z,5.56
2018-12-18T09:16:38.840Z,5.53
2018-12-18T09:17:38.840Z,5.50
2018-12-18T09:18:38.812Z,5.52
2018-12-18T09:19:38.809Z,5.53
2018-12-18T09:20:38.790Z,5.55
2018-12-18T09:21:38.784Z,5.57
2018-12-18T09:22:38.781Z,5.63
2018-12-18T09:23:38.758Z,5.60
2018-12-18T09:24:38.745Z,5.64
2018-12-18T09:25:38.737Z,5.68
2018-12-18T09:26:38.730Z,5.64
2018-12-18T09:27:38.726Z,5.63
2018-12-18T09:28:38.703Z,5.64
2018-12-18T09:29:38.697Z,5.64
2018-12-18T09:30:42.371Z,5.63
2018-12-18T09:31:38.669Z,5.63
2018-12-18T09:32:38.681Z,5.70
2018-12-18T09:33:38.659Z,5.73
2018-12-18T09:34:38.636Z,5.67
2018-12-18T09:35:38.625Z,5.70
2018-12-18T09:36:38.615Z,5.71
2018-12-18T09:37:38.620Z,5.73
2018-12-18T09:38:38.594Z,5.73
2018-12-18T09:39:38.582Z,5.71
2018-12-18T09:40:38.570Z,5.74
2018-12-18T09:41:38.556Z,5.70
2018-12-18T09:42:38.594Z,5.71
2018-12-18T09:43:38.534Z,5.70
2018-12-18T09:44:38.524Z,5.71
2018-12-18T09:45:38.513Z,5.74
2018-12-18T09:46:38.500Z,5.71
2018-12-18T09:47:38.501Z,5.85
2018-12-18T09:48:38.479Z,5.83
2018-12-18T09:49:38.466Z,5.83
2018-12-18T09:50:38.455Z,5.86
2018-12-18T09:51:38.448Z,5.77
2018-12-18T09:52:38.444Z,5.82
2018-12-18T09:53:38.474Z,5.85
2018-12-18T09:54:38.411Z,5.78
2018-12-18T09:55:38.401Z,5.78
2018-12-18T09:56:38.388Z,5.83
2018-12-18T09:57:38.390Z,5.91
2018-12-18T09:58:39.023Z,5.81
2018-12-18T09:59:38.355Z,5.86
2018-12-18T10:00:38.346Z,5.91
2018-12-18T10:01:38.480Z,5.88
2018-12-18T10:02:38.354Z,5.89
2018-12-18T10:03:38.310Z,5.86
2018-12-18T10:04:38.297Z,5.83
2018-12-18T10:05:38.287Z,5.81
2018-12-18T10:06:38.276Z,5.83
2018-12-18T10:07:38.265Z,5.81
2018-12-18T10:08:38.270Z,5.81
2018-12-18T10:09:38.244Z,5.81
2018-12-18T10:10:38.231Z,5.86
2018-12-18T10:11:38.221Z,5.88
2018-12-18T10:12:38.209Z,5.81
2018-12-18T10:13:38.210Z,5.78
2018-12-18T10:14:38.186Z,5.82
2018-12-18T10:15:38.176Z,5.85
2018-12-18T10:16:38.165Z,5.83
2018-12-18T10:17:38.154Z,5.91
2018-12-18T10:18:38.154Z,5.82
2018-12-18T10:19:38.137Z,5.81
2018-12-18T10:20:38.119Z,5.88
2018-12-18T10:21:38.108Z,5.83
2018-12-18T10:22:38.099Z,5.92
2018-12-18T10:23:38.098Z,5.91
2018-12-18T10:24:38.074Z,6.00
2018-12-18T10:25:38.066Z,6.00
2018-12-18T10:26:38.059Z,6.09
2018-12-18T10:27:38.041Z,6.16
2018-12-18T10:28:38.043Z,6.19
2018-12-18T10:29:38.018Z,6.09
2018-12-18T10:30:38.011Z,6.14
2018-12-18T10:31:37.996Z,6.14
2018-12-18T10:32:37.985Z,6.13
2018-12-18T10:33:37.991Z,6.10
2018-12-18T10:34:37.968Z,6.19
2018-12-18T10:35:37.953Z,6.10
2018-12-18T10:36:37.945Z,6.11
2018-12-18T10:37:37.937Z,6.11
2018-12-18T10:38:37.951Z,6.16
2018-12-18T10:39:37.906Z,6.14
2018-12-18T10:40:37.896Z,6.21
2018-12-18T10:41:37.884Z,6.16
2018-12-18T10:42:37.873Z,6.18
2018-12-18T10:43:37.872Z,6.14
2018-12-18T10:44:37.849Z,6.18
2018-12-18T10:45:37.841Z,6.10
2018-12-18T10:46:37.826Z,6.19
2018-12-18T10:47:37.818Z,6.14
2018-12-18T10:48:37.819Z,6.16
2018-12-18T10:49:37.793Z,6.28
2018-12-18T10:50:37.787Z,6.19
2018-12-18T10:51:37.774Z,6.19
2018-12-18T10:52:37.761Z,6.19
2018-12-18T10:53:37.764Z,6.26
2018-12-18T10:54:37.738Z,6.22
2018-12-18T10:55:37.727Z,6.30
2018-12-18T10:56:37.715Z,6.22
2018-12-18T10:57:37.704Z,6.26
2018-12-18T10:58:37.704Z,6.26
2018-12-18T10:59:37.683Z,6.21
2018-12-18T11:00:37.672Z,6.22
2018-12-18T11:01:37.666Z,6.29
2018-12-18T11:02:37.651Z,6.18
2018-12-18T11:03:37.649Z,6.16
2018-12-18T11:04:37.631Z,6.19
2018-12-18T11:05:37.615Z,6.21
2018-12-18T11:06:37.603Z,6.25
2018-12-18T11:07:37.594Z,6.26
2018-12-18T11:08:37.595Z,6.16
2018-12-18T11:09:37.570Z,6.26
2018-12-18T11:10:37.559Z,6.19
2018-12-18T11:11:37.549Z,6.26
2018-12-18T11:12:37.536Z,6.26
2018-12-18T11:13:37.538Z,6.29
2018-12-18T11:14:37.514Z,6.28
2018-12-18T11:15:37.504Z,6.28
2018-12-18T11:16:37.722Z,6.30
2018-12-18T11:17:37.479Z,6.30
2018-12-18T11:18:37.480Z,6.38
2018-12-18T11:19:37.457Z,6.33
2018-12-18T11:20:37.450Z,6.30
2018-12-18T11:21:37.435Z,6.40
2018-12-18T11:22:37.424Z,6.41
2018-12-18T11:23:37.413Z,6.38
2018-12-18T11:24:37.413Z,6.44
2018-12-18T11:25:37.390Z,6.40
2018-12-18T11:26:37.379Z,6.40
2018-12-18T11:27:37.368Z,6.41
2018-12-18T11:28:37.356Z,6.48
2018-12-18T11:29:37.358Z,6.47
2018-12-18T11:30:37.333Z,6.46
2018-12-18T11:31:37.325Z,6.50
2018-12-18T11:32:37.311Z,6.47
2018-12-18T11:33:37.299Z,6.54
2018-12-18T11:34:37.311Z,6.48
2018-12-18T11:35:37.278Z,6.51
2018-12-18T11:36:37.270Z,6.53
2018-12-18T11:37:37.356Z,6.53
2018-12-18T11:38:37.243Z,6.71
2018-12-18T11:39:37.243Z,6.76
2018-12-18T11:40:37.221Z,6.80
2018-12-18T11:41:37.211Z,6.86
2018-12-18T11:42:37.199Z,7.02
2018-12-18T11:43:37.187Z,7.13
2018-12-18T11:44:37.189Z,7.42
2018-12-18T11:45:37.164Z,7.72
2018-12-18T11:46:37.152Z,7.82
2018-12-18T11:47:37.141Z,7.97
2018-12-18T11:48:37.131Z,8.02
2018-12-18T11:49:37.130Z,7.96
2018-12-18T11:50:37.107Z,7.97
2018-12-18T11:51:37.096Z,8.18
2018-12-18T11:52:37.085Z,8.28
2018-12-18T11:53:37.073Z,8.28
2018-12-18T11:54:37.074Z,8.37
2018-12-18T11:55:37.054Z,8.42
2018-12-18T11:56:37.038Z,8.71
2018-12-18T11:57:37.026Z,8.84
2018-12-18T11:58:37.016Z,8.94
2018-12-18T11:59:37.017Z,8.93
2018-12-18T12:00:36.993Z,9.06
2018-12-18T12:01:36.983Z,9.15
2018-12-18T12:02:42.708Z,9.06
2018-12-18T12:03:37.958Z,9.10
2018-12-18T12:04:36.961Z,9.09
2018-12-18T12:05:38.146Z,9.16
2018-12-18T12:06:36.926Z,9.32
2018-12-18T12:07:36.914Z,9.32
2018-12-18T12:08:36.903Z,9.45
2018-12-18T12:09:36.904Z,9.52
2018-12-18T12:10:36.882Z,9.38
2018-12-18T12:11:36.871Z,9.46
2018-12-18T12:12:36.864Z,9.46
2018-12-18T12:13:36.848Z,9.39
2018-12-18T12:14:36.846Z,9.34
2018-12-18T12:15:36.825Z,9.38
2018-12-18T12:16:36.813Z,9.43
2018-12-18T12:17:36.803Z,9.60
2018-12-18T12:18:36.793Z,9.40
2018-12-18T12:19:36.790Z,9.12
2018-12-18T12:20:36.768Z,9.01
2018-12-18T12:21:36.759Z,8.83
2018-12-18T12:22:36.746Z,8.72
2018-12-18T12:23:36.734Z,8.48
2018-12-18T12:24:36.733Z,8.36
2018-12-18T12:25:36.710Z,8.14
2018-12-18T12:26:36.700Z,8.07
2018-12-18T12:27:36.690Z,7.96
2018-12-18T12:28:36.678Z,7.84
2018-12-18T12:29:36.677Z,7.63
2018-12-18T12:30:36.656Z,7.77
2018-12-18T12:31:36.644Z,7.79
2018-12-18T12:32:36.633Z,7.79
2018-12-18T12:33:36.623Z,7.79
2018-12-18T12:34:36.622Z,7.72
2018-12-18T12:35:36.601Z,7.72
2018-12-18T12:36:36.588Z,7.60
2018-12-18T12:37:36.576Z,7.56
2018-12-18T12:38:36.565Z,7.59
2018-12-18T12:39:36.564Z,7.53
2018-12-18T12:40:36.544Z,7.45
2018-12-18T12:41:36.532Z,7.49
2018-12-18T12:42:36.529Z,7.42
2018-12-18T12:43:36.509Z,7.38
2018-12-18T12:44:36.513Z,7.40
2018-12-18T12:45:36.487Z,7.26
2018-12-18T12:46:36.474Z,7.17
2018-12-18T12:47:36.463Z,7.29
2018-12-18T12:48:36.452Z,7.13
2018-12-18T12:49:36.482Z,7.13
2018-12-18T12:50:36.430Z,7.13
2018-12-18T12:51:36.419Z,7.13
2018-12-18T12:52:36.424Z,7.16
2018-12-18T12:53:36.397Z,7.08
2018-12-18T12:54:36.383Z,7.19
2018-12-18T12:55:36.382Z,7.01
2018-12-18T12:56:36.360Z,7.04
2018-12-18T12:57:36.348Z,6.98
2018-12-18T12:58:43.362Z,6.98
2018-12-18T12:59:36.329Z,6.91
2018-12-18T13:00:36.345Z,6.83
2018-12-18T13:01:41.924Z,6.83
2018-12-18T13:02:37.290Z,6.89
2018-12-18T13:03:36.279Z,6.89
2018-12-18T13:04:36.269Z,6.95
2018-12-18T13:05:36.269Z,6.97
2018-12-18T13:06:36.730Z,6.99
2018-12-18T13:07:36.233Z,6.94
2018-12-18T13:08:36.224Z,6.97
2018-12-18T13:09:36.210Z,6.84
2018-12-18T13:10:36.212Z,6.94
2018-12-18T13:11:36.194Z,6.80
2018-12-18T13:12:36.177Z,6.95
2018-12-18T13:13:36.174Z,6.80
2018-12-18T13:14:36.154Z,6.87
2018-12-18T13:15:36.154Z,6.89
2018-12-18T13:16:36.131Z,6.91
2018-12-18T13:17:36.120Z,6.79
2018-12-18T13:18:36.109Z,6.86